Time,TemperatureF,DewpointF,PressureIn,WindDirection,WindDirectionDegrees,WindSpeedMPH,WindSpeedGustMPH,Humidity,HourlyPrecipIn,Conditions,Clouds,dailyrainin,SoftwareType,DateUTC
2013-01-12 00:03:00,1.0,-4.2,30.12,NW,316,1.0,5.0,78,0.00,,,0.00,meteohub,2013-01-12 07:03:00,
2013-01-12 00:08:00,1.0,-4.2,30.13,NNE,13,1.0,5.0,78,0.00,,,0.00,meteohub,2013-01-12 07:08:00,
2013-01-12 00:13:00,0.7,-4.5,30.13,NNE,13,0.0,5.0,78,0.00,,,0.00,meteohub,2013-01-12 07:13:00,
2013-01-12 00:18:00,0.3,-5.3,30.13,NNE,13,0.0,4.0,77,0.00,,,0.00,meteohub,2013-01-12 07:18:00,
2013-01-12 00:23:00,-0.2,-5.4,30.13,NNE,13,1.0,4.0,78,0.00,,,0.00,meteohub,2013-01-12 07:23:00,
2013-01-12 00:29:00,-0.8,-6.0,30.13,NNE,13,0.0,1.0,78,0.00,,,0.00,meteohub,2013-01-12 07:29:00,
2013-01-12 00:34:00,-1.3,-6.2,30.14,NNE,13,0.0,1.0,79,0.00,,,0.00,meteohub,2013-01-12 07:34:00,
2013-01-12 00:39:00,-1.7,-6.5,30.14,NNE,13,1.0,1.0,79,0.00,,,0.00,meteohub,2013-01-12 07:39:00,
2013-01-12 00:44:00,-1.8,-6.5,30.14,NNE,13,0.0,2.0,80,0.00,,,0.00,meteohub,2013-01-12 07:44:00,
2013-01-12 00:49:00,-1.8,-6.2,30.14,NNE,13,0.0,2.0,81,0.00,,,0.00,meteohub,2013-01-12 07:49:00,
2013-01-12 00:54:00,-2.0,-6.3,30.14,NNE,13,0.0,2.0,81,0.00,,,0.00,meteohub,2013-01-12 07:54:00,
2013-01-12 00:59:00,-2.2,-6.5,30.14,NNE,13,0.0,1.0,81,0.00,,,0.00,meteohub,2013-01-12 07:59:00,
2013-01-12 01:04:00,-2.4,-6.7,30.14,NNE,13,0.0,0.0,81,0.00,,,0.00,meteohub,2013-01-12 08:04:00,
2013-01-12 01:09:00,-2.4,-6.7,30.14,NNE,19,0.0,0.0,81,0.00,,,0.00,meteohub,2013-01-12 08:09:00,
2013-01-12 01:14:00,-2.4,-6.7,30.15,NNE,19,0.0,2.0,81,0.00,,,0.00,meteohub,2013-01-12 08:14:00,
2013-01-12 01:19:00,-2.4,-6.7,30.15,NNE,19,0.0,2.0,81,0.00,,,0.00,meteohub,2013-01-12 08:19:00,
2013-01-12 01:24:00,-2.4,-6.7,30.15,NNE,19,0.0,2.0,81,0.00,,,0.00,meteohub,2013-01-12 08:24:00,
2013-01-12 01:30:00,-2.4,-6.5,30.15,NNE,19,0.0,0.0,82,0.00,,,0.00,meteohub,2013-01-12 08:30:00,
2013-01-12 01:35:00,-2.4,-6.5,30.15,NNE,19,0.0,0.0,82,0.00,,,0.00,meteohub,2013-01-12 08:35:00,
2013-01-12 01:40:00,-2.4,-6.3,30.15,NNE,19,0.0,0.0,83,0.00,,,0.00,meteohub,2013-01-12 08:40:00,
2013-01-12 01:45:00,-2.4,-6.3,30.16,NNE,19,0.0,0.0,83,0.00,,,0.00,meteohub,2013-01-12 08:45:00,
2013-01-12 01:50:00,-2.4,-6.5,30.16,NNE,19,0.0,0.0,82,0.00,,,0.00,meteohub,2013-01-12 08:50:00,
2013-01-12 01:55:00,-2.4,-6.0,30.16,SW,217,2.0,5.0,84,0.00,,,0.00,meteohub,2013-01-12 08:55:00,
2013-01-12 02:00:00,-1.8,-5.1,30.16,WSW,244,0.0,7.0,86,0.00,,,0.00,meteohub,2013-01-12 09:00:00,
2013-01-12 02:05:00,-1.5,-4.9,30.16,West,271,2.0,7.0,85,0.00,,,0.00,meteohub,2013-01-12 09:05:00,
2013-01-12 02:10:00,-1.3,-4.7,30.17,WSW,257,0.0,7.0,85,0.00,,,0.00,meteohub,2013-01-12 09:10:00,
2013-01-12 02:15:00,-1.1,-4.7,30.17,SW,218,1.0,7.0,84,0.00,,,0.00,meteohub,2013-01-12 09:15:00,
2013-01-12 02:20:00,-1.1,-4.7,30.17,SSW,203,3.0,7.0,84,0.00,,,0.00,meteohub,2013-01-12 09:20:00,
2013-01-12 02:25:00,-0.9,-4.5,30.17,SSE,152,1.0,5.0,84,0.00,,,0.00,meteohub,2013-01-12 09:25:00,
2013-01-12 02:31:00,-1.1,-4.7,30.17,SSW,206,6.0,6.0,84,0.00,,,0.00,meteohub,2013-01-12 09:31:00,
2013-01-12 02:36:00,-1.1,-4.7,30.17,SW,228,1.0,7.0,84,0.00,,,0.00,meteohub,2013-01-12 09:36:00,
2013-01-12 02:41:00,-1.1,-4.7,30.17,SSW,204,2.0,7.0,84,0.00,,,0.00,meteohub,2013-01-12 09:41:00,
2013-01-12 02:46:00,-1.1,-5.1,30.17,SW,214,1.0,7.0,83,0.00,,,0.00,meteohub,2013-01-12 09:46:00,
2013-01-12 02:51:00,-1.3,-4.9,30.17,WSW,246,1.0,5.0,84,0.00,,,0.00,meteohub,2013-01-12 09:51:00,
2013-01-12 02:56:00,-1.5,-5.4,30.17,SW,235,1.0,5.0,83,0.00,,,0.00,meteohub,2013-01-12 09:56:00,
2013-01-12 03:01:00,-2.0,-6.9,30.17,SW,235,0.0,5.0,79,0.00,,,0.00,meteohub,2013-01-12 10:01:00,
2013-01-12 03:06:00,-2.7,-7.6,30.17,SW,224,0.0,2.0,79,0.00,,,0.00,meteohub,2013-01-12 10:06:00,
2013-01-12 03:11:00,-3.3,-8.5,30.16,SW,224,0.0,2.0,78,0.00,,,0.00,meteohub,2013-01-12 10:11:00,
2013-01-12 03:16:00,-4.0,-9.4,30.16,SW,224,1.0,2.0,77,0.00,,,0.00,meteohub,2013-01-12 10:16:00,
2013-01-12 03:21:00,-4.7,-10.1,30.17,SW,224,1.0,1.0,77,0.00,,,0.00,meteohub,2013-01-12 10:21:00,
2013-01-12 03:27:00,-5.3,-10.1,30.17,SW,224,0.0,1.0,79,0.00,,,0.00,meteohub,2013-01-12 10:27:00,
2013-01-12 03:32:00,-5.6,-10.5,30.17,SW,224,1.0,2.0,79,0.00,,,0.00,meteohub,2013-01-12 10:32:00,
2013-01-12 03:37:00,-6.0,-10.3,30.16,SSE,147,2.0,2.0,81,0.00,,,0.00,meteohub,2013-01-12 10:37:00,
2013-01-12 03:42:00,-6.0,-9.8,30.16,South,172,1.0,3.0,83,0.00,,,0.00,meteohub,2013-01-12 10:42:00,
2013-01-12 03:47:00,-5.8,-9.9,30.17,SE,140,0.0,4.0,82,0.00,,,0.00,meteohub,2013-01-12 10:47:00,
2013-01-12 03:52:00,-6.0,-10.3,30.16,SE,140,0.0,4.0,81,0.00,,,0.00,meteohub,2013-01-12 10:52:00,
2013-01-12 03:57:00,-6.2,-10.5,30.16,ESE,122,1.0,3.0,81,0.00,,,0.00,meteohub,2013-01-12 10:57:00,
2013-01-12 04:02:00,-6.3,-10.7,30.17,ESE,122,0.0,2.0,81,0.00,,,0.00,meteohub,2013-01-12 11:02:00,
2013-01-12 04:07:00,-6.3,-10.7,30.17,ESE,122,0.0,2.0,81,0.00,,,0.00,meteohub,2013-01-12 11:07:00,
2013-01-12 04:12:00,-6.5,-10.5,30.17,East,82,0.0,2.0,82,0.00,,,0.00,meteohub,2013-01-12 11:12:00,
2013-01-12 04:17:00,-6.5,-10.3,30.17,East,82,0.0,2.0,83,0.00,,,0.00,meteohub,2013-01-12 11:17:00,
2013-01-12 04:22:00,-6.5,-10.5,30.17,East,82,0.0,2.0,82,0.00,,,0.00,meteohub,2013-01-12 11:22:00,
2013-01-12 04:27:00,-6.5,-10.8,30.17,ESE,109,1.0,1.0,81,0.00,,,0.00,meteohub,2013-01-12 11:27:00,
2013-01-12 04:32:00,-6.7,-10.7,30.17,SE,130,2.0,2.0,82,0.00,,,0.00,meteohub,2013-01-12 11:32:00,
2013-01-12 04:37:00,-6.5,-10.5,30.17,SE,139,1.0,3.0,82,0.00,,,0.00,meteohub,2013-01-12 11:37:00,
2013-01-12 04:42:00,-6.5,-10.8,30.17,SE,139,0.0,3.0,81,0.00,,,0.00,meteohub,2013-01-12 11:42:00,
2013-01-12 04:47:00,-6.5,-10.8,30.18,SE,132,2.0,3.0,81,0.00,,,0.00,meteohub,2013-01-12 11:47:00,
2013-01-12 04:52:00,-6.3,-10.3,30.18,SE,128,0.0,3.0,82,0.00,,,0.00,meteohub,2013-01-12 11:52:00,
2013-01-12 04:57:00,-6.3,-10.7,30.18,SE,127,2.0,3.0,81,0.00,,,0.00,meteohub,2013-01-12 11:57:00,
2013-01-12 05:02:00,-6.2,-10.5,30.18,SE,127,0.0,3.0,81,0.00,,,0.00,meteohub,2013-01-12 12:02:00,
2013-01-12 05:07:00,-6.2,-10.5,30.19,ESE,123,0.0,3.0,81,0.00,,,0.00,meteohub,2013-01-12 12:07:00,
2013-01-12 05:12:00,-6.3,-10.8,30.19,ESE,123,0.0,3.0,80,0.00,,,0.00,meteohub,2013-01-12 12:12:00,
2013-01-12 05:17:00,-6.5,-10.8,30.19,NNE,30,3.0,3.0,81,0.00,,,0.00,meteohub,2013-01-12 12:17:00,
2013-01-12 05:22:00,-6.5,-10.8,30.20,NE,35,0.0,4.0,81,0.00,,,0.00,meteohub,2013-01-12 12:22:00,
2013-01-12 05:27:00,-6.5,-10.8,30.20,NE,42,0.0,4.0,81,0.00,,,0.00,meteohub,2013-01-12 12:27:00,
2013-01-12 05:32:00,-6.9,-11.4,30.20,NE,42,0.0,4.0,80,0.00,,,0.00,meteohub,2013-01-12 12:32:00,
2013-01-12 05:37:00,-7.1,-11.6,30.21,NE,42,0.0,3.0,80,0.00,,,0.00,meteohub,2013-01-12 12:37:00,
2013-01-12 05:42:00,-7.1,-11.6,30.21,SE,135,1.0,1.0,80,0.00,,,0.00,meteohub,2013-01-12 12:42:00,
2013-01-12 05:47:00,-7.1,-11.4,30.22,SE,135,0.0,3.0,81,0.00,,,0.00,meteohub,2013-01-12 12:47:00,
2013-01-12 05:52:00,-7.1,-11.6,30.22,SE,135,0.0,3.0,80,0.00,,,0.00,meteohub,2013-01-12 12:52:00,
2013-01-12 05:57:00,-7.4,-12.3,30.23,SE,135,0.0,2.0,79,0.00,,,0.00,meteohub,2013-01-12 12:57:00,
2013-01-12 06:02:00,-7.8,-12.5,30.24,ESE,121,0.0,1.0,79,0.00,,,0.00,meteohub,2013-01-12 13:02:00,
2013-01-12 06:07:00,-8.0,-12.6,30.24,ESE,121,0.0,1.0,79,0.00,,,0.00,meteohub,2013-01-12 13:07:00,
2013-01-12 06:12:00,-8.1,-12.6,30.25,ESE,121,0.0,1.0,80,0.00,,,0.00,meteohub,2013-01-12 13:12:00,
2013-01-12 06:17:00,-8.1,-12.6,30.25,ESE,121,0.0,0.0,80,0.00,,,0.00,meteohub,2013-01-12 13:17:00,
2013-01-12 06:22:00,-8.1,-12.5,30.26,ESE,121,1.0,0.0,81,0.00,,,0.00,meteohub,2013-01-12 13:22:00,
2013-01-12 06:27:00,-8.1,-12.5,30.27,ESE,121,0.0,1.0,81,0.00,,,0.00,meteohub,2013-01-12 13:27:00,
2013-01-12 06:32:00,-8.0,-12.3,30.27,ESE,121,1.0,1.0,81,0.00,,,0.00,meteohub,2013-01-12 13:32:00,
2013-01-12 06:37:00,-8.0,-12.3,30.27,ENE,74,1.0,1.0,81,0.00,,,0.00,meteohub,2013-01-12 13:37:00,
2013-01-12 06:42:00,-7.8,-11.7,30.28,ENE,74,0.0,2.0,82,0.00,,,0.00,meteohub,2013-01-12 13:42:00,
2013-01-12 06:47:00,-7.8,-12.1,30.28,ENE,74,0.0,2.0,81,0.00,,,0.00,meteohub,2013-01-12 13:47:00,
2013-01-12 06:52:00,-7.8,-12.1,30.29,ENE,74,0.0,1.0,81,0.00,,,0.00,meteohub,2013-01-12 13:52:00,
2013-01-12 06:57:00,-8.0,-12.3,30.29,ENE,74,1.0,1.0,81,0.00,,,0.00,meteohub,2013-01-12 13:57:00,
2013-01-12 07:02:00,-8.0,-12.5,30.30,ENE,74,0.0,1.0,80,0.00,,,0.00,meteohub,2013-01-12 14:02:00,
2013-01-12 07:07:00,-8.1,-12.8,30.30,ENE,74,1.0,1.0,79,0.00,,,0.00,meteohub,2013-01-12 14:07:00,
2013-01-12 07:12:00,-8.3,-12.8,30.31,ENE,74,0.0,1.0,80,0.00,,,0.00,meteohub,2013-01-12 14:12:00,
2013-01-12 07:18:00,-8.7,-13.4,30.31,ENE,74,0.0,1.0,79,0.00,,,0.00,meteohub,2013-01-12 14:18:00,
2013-01-12 07:23:00,-9.0,-13.7,30.32,East,98,1.0,1.0,79,0.00,,,0.00,meteohub,2013-01-12 14:23:00,
2013-01-12 07:28:00,-9.2,-13.9,30.32,ENE,74,0.0,2.0,79,0.00,,,0.00,meteohub,2013-01-12 14:28:00,
2013-01-12 07:33:00,-9.6,-14.6,30.32,ENE,74,0.0,2.0,78,0.00,,,0.00,meteohub,2013-01-12 14:33:00,
2013-01-12 07:38:00,-9.8,-14.4,30.33,ENE,65,1.0,2.0,79,0.00,,,0.00,meteohub,2013-01-12 14:38:00,
2013-01-12 07:43:00,-10.1,-15.2,30.33,ENE,69,0.0,2.0,78,0.00,,,0.00,meteohub,2013-01-12 14:43:00,
2013-01-12 07:48:00,-10.7,-15.5,30.34,East,93,1.0,3.0,78,0.00,,,0.00,meteohub,2013-01-12 14:48:00,
2013-01-12 07:54:00,-10.8,-15.5,30.34,East,95,1.0,3.0,79,0.00,,,0.00,meteohub,2013-01-12 14:54:00,
2013-01-12 07:59:00,-11.0,-15.7,30.34,East,88,0.0,3.0,79,0.00,,,0.00,meteohub,2013-01-12 14:59:00,
2013-01-12 08:04:00,-11.0,-15.5,30.35,East,88,1.0,2.0,80,0.00,,,0.00,meteohub,2013-01-12 15:04:00,
2013-01-12 08:09:00,-11.0,-15.7,30.35,ENE,69,0.0,2.0,79,0.00,,,0.00,meteohub,2013-01-12 15:09:00,
2013-01-12 08:14:00,-11.6,-16.4,30.36,East,82,1.0,2.0,78,0.00,,,0.00,meteohub,2013-01-12 15:14:00,
2013-01-12 08:19:00,-11.7,-16.6,30.36,ESE,114,1.0,2.0,78,0.00,,,0.00,meteohub,2013-01-12 15:19:00,
2013-01-12 08:24:00,-11.6,-15.7,30.37,ESE,105,1.0,2.0,81,0.00,,,0.00,meteohub,2013-01-12 15:24:00,
2013-01-12 08:29:00,-11.6,-16.1,30.37,ESE,105,0.0,2.0,80,0.00,,,0.00,meteohub,2013-01-12 15:29:00,
2013-01-12 08:34:00,-11.4,-15.5,30.38,ESE,105,1.0,2.0,81,0.00,,,0.00,meteohub,2013-01-12 15:34:00,
2013-01-12 08:39:00,-11.2,-15.3,30.38,ENE,78,1.0,2.0,81,0.00,,,0.00,meteohub,2013-01-12 15:39:00,
2013-01-12 08:44:00,-11.0,-15.2,30.39,ENE,78,0.0,3.0,81,0.00,,,0.00,meteohub,2013-01-12 15:44:00,
2013-01-12 08:49:00,-11.0,-15.5,30.39,ENE,78,0.0,3.0,80,0.00,,,0.00,meteohub,2013-01-12 15:49:00,
2013-01-12 08:54:00,-11.0,-15.5,30.39,ENE,78,1.0,3.0,80,0.00,,,0.00,meteohub,2013-01-12 15:54:00,
2013-01-12 09:00:00,-10.8,-15.0,30.39,ENE,78,0.0,1.0,81,0.00,,,0.00,meteohub,2013-01-12 16:00:00,
2013-01-12 09:05:00,-10.7,-14.8,30.40,ENE,78,1.0,2.0,81,0.00,,,0.00,meteohub,2013-01-12 16:05:00,
2013-01-12 09:10:00,-10.1,-14.3,30.40,ENE,78,0.0,2.0,81,0.00,,,0.00,meteohub,2013-01-12 16:10:00,
2013-01-12 09:15:00,-9.6,-14.3,30.40,East,80,0.0,2.0,79,0.00,,,0.00,meteohub,2013-01-12 16:15:00,
2013-01-12 09:20:00,-9.2,-13.7,30.40,East,80,1.0,2.0,80,0.00,,,0.00,meteohub,2013-01-12 16:20:00,
2013-01-12 09:25:00,-8.3,-12.6,30.40,East,83,1.0,2.0,81,0.00,,,0.00,meteohub,2013-01-12 16:25:00,
2013-01-12 09:30:00,-7.1,-11.4,30.40,East,84,0.0,2.0,81,0.00,,,0.00,meteohub,2013-01-12 16:30:00,
2013-01-12 09:35:00,-5.4,-9.6,30.40,East,84,0.0,2.0,82,0.00,,,0.00,meteohub,2013-01-12 16:35:00,
2013-01-12 09:40:00,-3.5,-8.3,30.40,East,84,0.0,2.0,79,0.00,,,0.00,meteohub,2013-01-12 16:40:00,
2013-01-12 09:45:00,-1.8,-8.3,30.40,East,84,1.0,1.0,73,0.00,,,0.00,meteohub,2013-01-12 16:45:00,
2013-01-12 09:50:00,-0.8,-8.1,30.40,SE,138,1.0,2.0,70,0.00,,,0.00,meteohub,2013-01-12 16:50:00,
2013-01-12 09:55:00,0.1,-7.2,30.40,SW,215,2.0,3.0,70,0.00,,,0.00,meteohub,2013-01-12 16:55:00,
2013-01-12 10:00:00,0.9,-6.9,30.40,SW,216,1.0,3.0,69,0.00,,,0.00,meteohub,2013-01-12 17:00:00,
2013-01-12 10:06:00,1.0,-7.1,30.40,SW,236,3.0,3.0,68,0.00,,,0.00,meteohub,2013-01-12 17:06:00,
2013-01-12 10:11:00,1.0,-7.1,30.40,WSW,238,3.0,4.0,68,0.00,,,0.00,meteohub,2013-01-12 17:11:00,
2013-01-12 10:16:00,1.2,-7.2,30.40,WSW,247,2.0,4.0,67,0.00,,,0.00,meteohub,2013-01-12 17:16:00,
2013-01-12 10:21:00,1.6,-6.9,30.40,WSW,246,2.0,4.0,67,0.00,,,0.00,meteohub,2013-01-12 17:21:00,
2013-01-12 10:26:00,1.9,-6.5,30.40,WSW,239,2.0,4.0,67,0.00,,,0.00,meteohub,2013-01-12 17:26:00,
2013-01-12 10:31:00,2.3,-6.2,30.40,SW,236,3.0,5.0,67,0.00,,,0.00,meteohub,2013-01-12 17:31:00,
2013-01-12 10:36:00,3.0,-5.4,30.40,SW,235,1.0,5.0,67,0.00,,,0.00,meteohub,2013-01-12 17:36:00,
2013-01-12 10:41:00,3.9,-5.3,30.40,WSW,238,2.0,5.0,65,0.00,,,0.00,meteohub,2013-01-12 17:41:00,
2013-01-12 10:46:00,4.6,-5.3,30.40,WSW,248,3.0,3.0,63,0.00,,,0.00,meteohub,2013-01-12 17:46:00,
2013-01-12 10:51:00,5.5,-4.7,30.39,WSW,257,2.0,4.0,62,0.00,,,0.00,meteohub,2013-01-12 17:51:00,
2013-01-12 10:56:00,6.3,-5.4,30.38,SW,224,2.0,4.0,58,0.00,,,0.00,meteohub,2013-01-12 17:56:00,
2013-01-12 11:01:00,7.2,-5.3,30.38,SW,225,2.0,4.0,56,0.00,,,0.00,meteohub,2013-01-12 18:01:00,
2013-01-12 11:06:00,7.7,-5.4,30.38,SW,222,1.0,4.0,54,0.00,,,0.00,meteohub,2013-01-12 18:06:00,
2013-01-12 11:12:00,8.2,-6.2,30.38,SW,223,2.0,4.0,51,0.00,,,0.00,meteohub,2013-01-12 18:12:00,
2013-01-12 11:17:00,8.8,-6.5,30.38,SW,230,4.0,4.0,49,0.00,,,0.00,meteohub,2013-01-12 18:17:00,
2013-01-12 11:22:00,9.1,-6.5,30.38,SSW,212,1.0,4.0,48,0.00,,,0.00,meteohub,2013-01-12 18:22:00,
2013-01-12 11:27:00,9.5,-6.7,30.37,West,279,1.0,4.0,47,0.00,,,0.00,meteohub,2013-01-12 18:27:00,
2013-01-12 11:32:00,10.0,-7.1,30.37,SW,216,4.0,4.0,45,0.00,,,0.00,meteohub,2013-01-12 18:32:00,
2013-01-12 11:37:00,9.9,-7.8,30.37,SW,221,3.0,5.0,44,0.00,,,0.00,meteohub,2013-01-12 18:37:00,
2013-01-12 11:42:00,9.7,-7.8,30.36,SW,229,3.0,6.0,44,0.00,,,0.00,meteohub,2013-01-12 18:42:00,
2013-01-12 11:47:00,9.9,-7.8,30.36,WNW,303,3.0,6.0,44,0.00,,,0.00,meteohub,2013-01-12 18:47:00,
2013-01-12 11:52:00,10.0,-7.6,30.36,WNW,303,3.0,6.0,44,0.00,,,0.00,meteohub,2013-01-12 18:52:00,
2013-01-12 11:57:00,10.6,-7.1,30.35,North,349,2.0,5.0,44,0.00,,,0.00,meteohub,2013-01-12 18:57:00,
2013-01-12 12:02:00,10.9,-7.6,30.35,North,353,2.0,7.0,42,0.00,,,0.00,meteohub,2013-01-12 19:02:00,
2013-01-12 12:07:00,10.9,-8.7,30.35,North,3,0.0,7.0,40,0.00,,,0.00,meteohub,2013-01-12 19:07:00,
2013-01-12 12:12:00,10.8,-8.9,30.35,West,280,2.0,5.0,40,0.00,,,0.00,meteohub,2013-01-12 19:12:00,
2013-01-12 12:17:00,10.9,-8.1,30.35,NW,326,1.0,7.0,41,0.00,,,0.00,meteohub,2013-01-12 19:17:00,
2013-01-12 12:22:00,11.5,-7.6,30.34,WSW,238,1.0,7.0,41,0.00,,,0.00,meteohub,2013-01-12 19:22:00,
2013-01-12 12:27:00,10.8,-9.9,30.34,SW,234,2.0,7.0,38,0.00,,,0.00,meteohub,2013-01-12 19:27:00,
2013-01-12 12:32:00,10.8,-8.9,30.33,WSW,253,2.0,7.0,40,0.00,,,0.00,meteohub,2013-01-12 19:32:00,
2013-01-12 12:37:00,10.4,-10.1,30.33,SW,228,3.0,7.0,38,0.00,,,0.00,meteohub,2013-01-12 19:37:00,
2013-01-12 12:42:00,10.6,-8.5,30.33,WNW,288,1.0,7.0,41,0.00,,,0.00,meteohub,2013-01-12 19:42:00,
2013-01-12 12:47:00,10.2,-10.3,30.33,West,274,1.0,8.0,38,0.00,,,0.00,meteohub,2013-01-12 19:47:00,
2013-01-12 12:52:00,10.6,-9.9,30.33,WNW,289,3.0,8.0,38,0.00,,,0.00,meteohub,2013-01-12 19:52:00,
2013-01-12 12:57:00,9.7,-10.8,30.33,WNW,300,3.0,8.0,38,0.00,,,0.00,meteohub,2013-01-12 19:57:00,
2013-01-12 13:02:00,9.1,-10.8,30.32,West,268,1.0,8.0,39,0.00,,,0.00,meteohub,2013-01-12 20:02:00,
2013-01-12 13:07:00,9.5,-10.5,30.32,WNW,303,6.0,8.0,39,0.00,,,0.00,meteohub,2013-01-12 20:07:00,
2013-01-12 13:12:00,9.3,-11.7,30.32,SW,226,3.0,7.0,37,0.00,,,0.00,meteohub,2013-01-12 20:12:00,
2013-01-12 13:17:00,9.0,-11.6,30.32,NNW,336,2.0,7.0,38,0.00,,,0.00,meteohub,2013-01-12 20:17:00,
2013-01-12 13:22:00,8.8,-10.7,30.32,NNW,328,0.0,7.0,40,0.00,,,0.00,meteohub,2013-01-12 20:22:00,
2013-01-12 13:27:00,8.6,-10.8,30.32,NW,309,3.0,7.0,40,0.00,,,0.00,meteohub,2013-01-12 20:27:00,
2013-01-12 13:32:00,9.0,-10.5,30.32,West,281,7.0,8.0,40,0.00,,,0.00,meteohub,2013-01-12 20:32:00,
2013-01-12 13:37:00,8.8,-11.2,30.32,West,281,2.0,11.0,39,0.00,,,0.00,meteohub,2013-01-12 20:37:00,
2013-01-12 13:42:00,8.2,-11.6,30.32,SW,230,3.0,11.0,39,0.00,,,0.00,meteohub,2013-01-12 20:42:00,
2013-01-12 13:47:00,7.7,-11.6,30.32,West,275,1.0,11.0,40,0.00,,,0.00,meteohub,2013-01-12 20:47:00,
2013-01-12 13:52:00,7.0,-11.2,30.32,WNW,303,1.0,8.0,42,0.00,,,0.00,meteohub,2013-01-12 20:52:00,
2013-01-12 13:57:00,6.4,-10.3,30.32,WNW,288,2.0,8.0,45,0.00,,,0.00,meteohub,2013-01-12 20:57:00,
2013-01-12 14:02:00,6.1,-10.3,30.32,WNW,288,4.0,8.0,46,0.00,,,0.00,meteohub,2013-01-12 21:02:00,
2013-01-12 14:07:00,5.9,-9.9,30.32,WSW,245,2.0,8.0,47,0.00,,,0.00,meteohub,2013-01-12 21:07:00,
2013-01-12 14:13:00,5.7,-8.9,30.32,SW,222,3.0,8.0,50,0.00,,,0.00,meteohub,2013-01-12 21:13:00,
2013-01-12 14:18:00,5.5,-8.3,30.33,SSW,213,5.0,8.0,52,0.00,,,0.00,meteohub,2013-01-12 21:18:00,
2013-01-12 14:23:00,5.5,-7.4,30.33,SW,232,2.0,7.0,54,0.00,,,0.00,meteohub,2013-01-12 21:23:00,
2013-01-12 14:28:00,5.7,-6.5,30.33,SSW,210,3.0,7.0,56,0.00,,,0.00,meteohub,2013-01-12 21:28:00,
2013-01-12 14:33:00,5.7,-6.5,30.33,WSW,242,1.0,7.0,56,0.00,,,0.00,meteohub,2013-01-12 21:33:00,
2013-01-12 14:38:00,5.5,-6.7,30.33,SW,232,3.0,7.0,56,0.00,,,0.00,meteohub,2013-01-12 21:38:00,
2013-01-12 14:43:00,5.4,-6.5,30.34,West,273,3.0,7.0,57,0.00,,,0.00,meteohub,2013-01-12 21:43:00,
2013-01-12 14:48:00,6.1,-5.8,30.33,West,281,0.0,7.0,57,0.00,,,0.00,meteohub,2013-01-12 21:48:00,
2013-01-12 14:53:00,7.3,-7.1,30.33,NW,309,1.0,7.0,51,0.00,,,0.00,meteohub,2013-01-12 21:53:00,
2013-01-12 14:58:00,8.2,-7.8,30.33,WNW,289,4.0,8.0,47,0.00,,,0.00,meteohub,2013-01-12 21:58:00,
2013-01-12 15:03:00,8.4,-6.9,30.34,WSW,240,2.0,8.0,49,0.00,,,0.00,meteohub,2013-01-12 22:03:00,
2013-01-12 15:08:00,7.5,-6.5,30.34,SW,215,7.0,11.0,52,0.00,,,0.00,meteohub,2013-01-12 22:08:00,
2013-01-12 15:14:00,6.6,-6.5,30.34,SSW,210,5.0,11.0,54,0.00,,,0.00,meteohub,2013-01-12 22:14:00,
2013-01-12 15:19:00,7.0,-5.8,30.35,SSW,199,5.0,8.0,55,0.00,,,0.00,meteohub,2013-01-12 22:19:00,
2013-01-12 15:24:00,6.8,-5.6,30.35,SW,219,5.0,8.0,56,0.00,,,0.00,meteohub,2013-01-12 22:24:00,
2013-01-12 15:29:00,6.6,-5.8,30.35,SSW,208,4.0,9.0,56,0.00,,,0.00,meteohub,2013-01-12 22:29:00,
2013-01-12 15:34:00,6.6,-5.4,30.35,SSW,213,3.0,9.0,57,0.00,,,0.00,meteohub,2013-01-12 22:34:00,
2013-01-12 15:39:00,6.3,-6.2,30.35,SW,219,2.0,9.0,56,0.00,,,0.00,meteohub,2013-01-12 22:39:00,
2013-01-12 15:44:00,5.7,-5.8,30.36,SW,214,5.0,9.0,58,0.00,,,0.00,meteohub,2013-01-12 22:44:00,
2013-01-12 15:49:00,5.4,-5.8,30.36,South,190,3.0,9.0,59,0.00,,,0.00,meteohub,2013-01-12 22:49:00,
2013-01-12 15:55:00,5.0,-5.8,30.37,South,186,7.0,9.0,60,0.00,,,0.00,meteohub,2013-01-12 22:55:00,
2013-01-12 16:00:00,4.5,-6.0,30.37,SW,226,4.0,10.0,61,0.00,,,0.00,meteohub,2013-01-12 23:00:00,
2013-01-12 16:05:00,3.9,-6.2,30.37,SSW,211,2.0,10.0,62,0.00,,,0.00,meteohub,2013-01-12 23:05:00,
2013-01-12 16:10:00,3.7,-6.3,30.37,SW,215,5.0,9.0,62,0.00,,,0.00,meteohub,2013-01-12 23:10:00,
2013-01-12 16:15:00,3.4,-6.7,30.37,SW,226,4.0,9.0,62,0.00,,,0.00,meteohub,2013-01-12 23:15:00,
2013-01-12 16:20:00,2.8,-7.2,30.37,SSW,202,4.0,9.0,62,0.00,,,0.00,meteohub,2013-01-12 23:20:00,
2013-01-12 16:25:00,2.8,-6.9,30.38,WSW,239,2.0,9.0,63,0.00,,,0.00,meteohub,2013-01-12 23:25:00,
2013-01-12 16:30:00,2.8,-6.9,30.38,SSE,159,3.0,9.0,63,0.00,,,0.00,meteohub,2013-01-12 23:30:00,
2013-01-12 16:36:00,2.7,-6.7,30.38,SE,128,2.0,8.0,64,0.00,,,0.00,meteohub,2013-01-12 23:36:00,
2013-01-12 16:41:00,2.5,-6.9,30.38,SSW,211,3.0,8.0,64,0.00,,,0.00,meteohub,2013-01-12 23:41:00,
2013-01-12 16:46:00,2.5,-6.5,30.38,South,186,1.0,8.0,65,0.00,,,0.00,meteohub,2013-01-12 23:46:00,
2013-01-12 16:51:00,2.1,-6.3,30.39,South,182,2.0,7.0,67,0.00,,,0.00,meteohub,2013-01-12 23:51:00,
2013-01-12 16:56:00,1.8,-6.3,30.39,SW,228,3.0,7.0,68,0.00,,,0.00,meteohub,2013-01-12 23:56:00,
2013-01-12 17:01:00,1.4,-6.3,30.39,SSW,206,2.0,6.0,69,0.00,,,0.00,meteohub,2013-01-13 00:01:00,
2013-01-12 17:06:00,0.9,-6.7,30.40,SSW,195,1.0,5.0,70,0.00,,,0.00,meteohub,2013-01-13 00:06:00,
2013-01-12 17:12:00,0.5,-6.9,30.40,ESE,121,1.0,5.0,70,0.00,,,0.00,meteohub,2013-01-13 00:12:00,
2013-01-12 17:17:00,0.3,-6.0,30.40,South,177,3.0,5.0,74,0.00,,,0.00,meteohub,2013-01-13 00:17:00,
2013-01-12 17:22:00,0.1,-6.2,30.40,SSW,197,1.0,4.0,74,0.00,,,0.00,meteohub,2013-01-13 00:22:00,
2013-01-12 17:27:00,0.0,-6.9,30.40,South,172,0.0,4.0,72,0.00,,,0.00,meteohub,2013-01-13 00:27:00,
2013-01-12 17:32:00,-0.9,-8.1,30.41,South,172,2.0,4.0,71,0.00,,,0.00,meteohub,2013-01-13 00:32:00,
2013-01-12 17:37:00,-1.5,-8.0,30.41,SE,138,1.0,3.0,73,0.00,,,0.00,meteohub,2013-01-13 00:37:00,
2013-01-12 17:42:00,-2.4,-9.4,30.41,SE,138,0.0,3.0,71,0.00,,,0.00,meteohub,2013-01-13 00:42:00,
2013-01-12 17:47:00,-2.7,-9.6,30.41,SE,138,1.0,3.0,72,0.00,,,0.00,meteohub,2013-01-13 00:47:00,
2013-01-12 17:52:00,-3.3,-10.1,30.41,SE,138,0.0,3.0,72,0.00,,,0.00,meteohub,2013-01-13 00:52:00,
2013-01-12 17:57:00,-3.5,-10.3,30.41,SE,129,1.0,2.0,72,0.00,,,0.00,meteohub,2013-01-13 00:57:00,
2013-01-12 18:03:00,-3.8,-10.3,30.42,SE,126,0.0,3.0,73,0.00,,,0.00,meteohub,2013-01-13 01:03:00,
2013-01-12 18:08:00,-4.4,-10.8,30.42,SSE,161,1.0,3.0,73,0.00,,,0.00,meteohub,2013-01-13 01:08:00,
2013-01-12 18:13:00,-4.7,-10.8,30.42,SE,139,2.0,3.0,74,0.00,,,0.00,meteohub,2013-01-13 01:13:00,
2013-01-12 18:18:00,-5.1,-11.2,30.42,ESE,119,1.0,4.0,74,0.00,,,0.00,meteohub,2013-01-13 01:18:00,
2013-01-12 18:23:00,-5.1,-11.2,30.43,ESE,120,2.0,4.0,74,0.00,,,0.00,meteohub,2013-01-13 01:23:00,
2013-01-12 18:28:00,-5.3,-11.4,30.43,ESE,112,1.0,4.0,74,0.00,,,0.00,meteohub,2013-01-13 01:28:00,
2013-01-12 18:33:00,-5.4,-11.6,30.43,SE,136,2.0,4.0,74,0.00,,,0.00,meteohub,2013-01-13 01:33:00,
2013-01-12 18:38:00,-5.4,-11.6,30.43,ESE,109,1.0,4.0,74,0.00,,,0.00,meteohub,2013-01-13 01:38:00,
2013-01-12 18:44:00,-6.0,-12.5,30.43,ESE,114,1.0,4.0,73,0.00,,,0.00,meteohub,2013-01-13 01:44:00,
2013-01-12 18:49:00,-6.2,-12.3,30.43,ESE,114,1.0,4.0,74,0.00,,,0.00,meteohub,2013-01-13 01:49:00,
2013-01-12 18:54:00,-6.2,-12.5,30.43,ESE,112,4.0,4.0,73,0.00,,,0.00,meteohub,2013-01-13 01:54:00,
2013-01-12 18:59:00,-6.3,-12.5,30.44,ESE,120,0.0,4.0,74,0.00,,,0.00,meteohub,2013-01-13 01:59:00,
2013-01-12 19:04:00,-6.5,-12.6,30.44,ESE,120,1.0,4.0,74,0.00,,,0.00,meteohub,2013-01-13 02:04:00,
2013-01-12 19:09:00,-6.9,-13.2,30.44,ESE,108,4.0,6.0,73,0.00,,,0.00,meteohub,2013-01-13 02:09:00,
2013-01-12 19:14:00,-7.2,-13.5,30.44,ESE,105,0.0,6.0,73,0.00,,,0.00,meteohub,2013-01-13 02:14:00,
2013-01-12 19:20:00,-7.6,-13.7,30.44,ESE,109,2.0,5.0,74,0.00,,,0.00,meteohub,2013-01-13 02:20:00,
2013-01-12 19:25:00,-7.8,-14.1,30.45,ESE,113,2.0,5.0,73,0.00,,,0.00,meteohub,2013-01-13 02:25:00,
2013-01-12 19:30:00,-8.1,-14.4,30.45,ESE,121,1.0,5.0,73,0.00,,,0.00,meteohub,2013-01-13 02:30:00,
2013-01-12 19:35:00,-8.1,-14.4,30.45,East,101,3.0,4.0,73,0.00,,,0.00,meteohub,2013-01-13 02:35:00,
2013-01-12 19:40:00,-8.3,-14.4,30.45,ESE,104,2.0,4.0,74,0.00,,,0.00,meteohub,2013-01-13 02:40:00,
2013-01-12 19:45:00,-8.1,-13.9,30.45,East,92,2.0,4.0,75,0.00,,,0.00,meteohub,2013-01-13 02:45:00,
2013-01-12 19:51:00,-7.8,-13.4,30.45,East,96,1.0,4.0,76,0.00,,,0.00,meteohub,2013-01-13 02:51:00,
2013-01-12 19:56:00,-7.8,-14.1,30.45,ESE,123,6.0,6.0,73,0.00,,,0.00,meteohub,2013-01-13 02:56:00,
2013-01-12 20:01:00,-8.0,-14.3,30.45,ESE,111,1.0,6.0,73,0.00,,,0.00,meteohub,2013-01-13 03:01:00,
2013-01-12 20:06:00,-8.0,-14.3,30.46,ESE,102,1.0,6.0,73,0.00,,,0.00,meteohub,2013-01-13 03:06:00,
2013-01-12 20:11:00,-8.0,-14.3,30.46,ESE,102,0.0,6.0,73,0.00,,,0.00,meteohub,2013-01-13 03:11:00,
2013-01-12 20:16:00,-8.1,-14.4,30.46,East,85,2.0,3.0,73,0.00,,,0.00,meteohub,2013-01-13 03:16:00,
2013-01-12 20:21:00,-8.1,-14.8,30.46,ESE,119,2.0,6.0,72,0.00,,,0.00,meteohub,2013-01-13 03:21:00,
2013-01-12 20:26:00,-8.3,-15.0,30.46,East,98,1.0,6.0,72,0.00,,,0.00,meteohub,2013-01-13 03:26:00,
2013-01-12 20:31:00,-8.3,-14.4,30.46,East,93,3.0,6.0,74,0.00,,,0.00,meteohub,2013-01-13 03:31:00,
2013-01-12 20:36:00,-8.0,-14.1,30.46,ESE,117,1.0,5.0,74,0.00,,,0.00,meteohub,2013-01-13 03:36:00,
2013-01-12 20:42:00,-7.8,-13.5,30.46,ENE,62,2.0,5.0,75,0.00,,,0.00,meteohub,2013-01-13 03:42:00,
2013-01-12 20:47:00,-7.6,-13.2,30.46,ESE,106,2.0,5.0,76,0.00,,,0.00,meteohub,2013-01-13 03:47:00,
2013-01-12 20:52:00,-7.8,-13.4,30.46,ESE,107,3.0,4.0,76,0.00,,,0.00,meteohub,2013-01-13 03:52:00,
2013-01-12 20:57:00,-8.0,-13.7,30.46,ESE,107,2.0,4.0,75,0.00,,,0.00,meteohub,2013-01-13 03:57:00,
2013-01-12 21:02:00,-8.3,-14.4,30.47,East,81,1.0,4.0,74,0.00,,,0.00,meteohub,2013-01-13 04:02:00,
2013-01-12 21:07:00,-8.3,-14.1,30.47,East,86,2.0,4.0,75,0.00,,,0.00,meteohub,2013-01-13 04:07:00,
2013-01-12 21:12:00,-8.3,-14.1,30.47,East,94,1.0,4.0,75,0.00,,,0.00,meteohub,2013-01-13 04:12:00,
2013-01-12 21:17:00,-8.3,-14.4,30.47,SE,125,1.0,4.0,74,0.00,,,0.00,meteohub,2013-01-13 04:17:00,
2013-01-12 21:22:00,-8.9,-15.2,30.47,ESE,117,1.0,4.0,73,0.00,,,0.00,meteohub,2013-01-13 04:22:00,
2013-01-12 21:27:00,-9.0,-15.0,30.47,ESE,117,0.0,3.0,74,0.00,,,0.00,meteohub,2013-01-13 04:27:00,
2013-01-12 21:32:00,-9.2,-15.2,30.47,ENE,57,2.0,3.0,74,0.00,,,0.00,meteohub,2013-01-13 04:32:00,
2013-01-12 21:37:00,-9.2,-14.4,30.47,NE,54,1.0,4.0,77,0.00,,,0.00,meteohub,2013-01-13 04:37:00,
2013-01-12 21:42:00,-9.0,-14.1,30.47,NE,55,2.0,4.0,78,0.00,,,0.00,meteohub,2013-01-13 04:42:00,
2013-01-12 21:47:00,-9.0,-14.8,30.48,East,98,1.0,4.0,75,0.00,,,0.00,meteohub,2013-01-13 04:47:00,
2013-01-12 21:52:00,-9.6,-15.5,30.48,East,85,1.0,3.0,74,0.00,,,0.00,meteohub,2013-01-13 04:52:00,
2013-01-12 21:57:00,-9.4,-15.0,30.48,ENE,74,3.0,3.0,76,0.00,,,0.00,meteohub,2013-01-13 04:57:00,
2013-01-12 22:00:00,-9.4,-15.0,30.48,ESE,104,1.0,3.0,76,0.00,,,0.00,meteohub,2013-01-13 05:00:00,
2013-01-12 22:02:00,-9.2,-15.0,30.48,ENE,65,2.0,3.0,75,0.00,,,0.00,meteohub,2013-01-13 05:02:00,
2013-01-12 22:03:00,-9.2,-15.0,30.48,ENE,60,2.0,3.0,75,0.00,,,0.00,meteohub,2013-01-13 05:03:00,
2013-01-12 22:04:00,-9.2,-15.0,30.48,ESE,104,2.0,3.0,75,0.00,,,0.00,meteohub,2013-01-13 05:04:00,
2013-01-12 22:09:00,-9.2,-15.2,30.48,ESE,104,2.0,3.0,74,0.00,,,0.00,meteohub,2013-01-13 05:09:00,
2013-01-12 22:14:00,-9.6,-15.9,30.49,SE,138,1.0,4.0,73,0.00,,,0.00,meteohub,2013-01-13 05:14:00,
2013-01-12 22:20:00,-9.6,-15.5,30.49,ESE,104,3.0,4.0,74,0.00,,,0.00,meteohub,2013-01-13 05:20:00,
2013-01-12 22:25:00,-9.6,-15.5,30.49,ESE,117,6.0,6.0,74,0.00,,,0.00,meteohub,2013-01-13 05:25:00,
2013-01-12 22:30:00,-9.6,-15.9,30.49,East,98,1.0,5.0,73,0.00,,,0.00,meteohub,2013-01-13 05:30:00,
2013-01-12 22:35:00,-9.9,-16.4,30.49,ENE,63,3.0,7.0,72,0.00,,,0.00,meteohub,2013-01-13 05:35:00,
2013-01-12 22:40:00,-10.1,-16.4,30.50,East,101,1.0,6.0,73,0.00,,,0.00,meteohub,2013-01-13 05:40:00,
2013-01-12 22:45:00,-10.1,-15.9,30.50,ENE,59,2.0,5.0,75,0.00,,,0.00,meteohub,2013-01-13 05:45:00,
2013-01-12 22:50:00,-9.9,-15.3,30.50,ENE,68,1.0,4.0,76,0.00,,,0.00,meteohub,2013-01-13 05:50:00,
2013-01-12 22:55:00,-9.8,-15.2,30.50,NE,49,1.0,4.0,76,0.00,,,0.00,meteohub,2013-01-13 05:55:00,
2013-01-12 23:00:00,-9.8,-15.5,30.50,East,91,0.0,6.0,75,0.00,,,0.00,meteohub,2013-01-13 06:00:00,
2013-01-12 23:05:00,-9.8,-15.7,30.51,NE,42,1.0,6.0,74,0.00,,,0.00,meteohub,2013-01-13 06:05:00,
2013-01-12 23:10:00,-9.8,-15.5,30.51,East,81,2.0,6.0,75,0.00,,,0.00,meteohub,2013-01-13 06:10:00,
2013-01-12 23:15:00,-9.6,-15.5,30.51,SE,129,1.0,5.0,74,0.00,,,0.00,meteohub,2013-01-13 06:15:00,
2013-01-12 23:21:00,-9.9,-15.9,30.50,East,84,1.0,5.0,74,0.00,,,0.00,meteohub,2013-01-13 06:21:00,
2013-01-12 23:26:00,-10.1,-16.1,30.51,ESE,111,2.0,4.0,74,0.00,,,0.00,meteohub,2013-01-13 06:26:00,
2013-01-12 23:31:00,-9.9,-15.7,30.51,NNE,19,3.0,3.0,75,0.00,,,0.00,meteohub,2013-01-13 06:31:00,
2013-01-12 23:36:00,-9.9,-15.7,30.51,NE,54,2.0,4.0,75,0.00,,,0.00,meteohub,2013-01-13 06:36:00,
2013-01-12 23:41:00,-9.9,-15.7,30.51,East,95,1.0,4.0,75,0.00,,,0.00,meteohub,2013-01-13 06:41:00,
2013-01-12 23:46:00,-9.9,-15.3,30.51,East,101,1.0,3.0,76,0.00,,,0.00,meteohub,2013-01-13 06:46:00,
2013-01-12 23:51:00,-9.9,-15.3,30.51,East,82,1.0,5.0,76,0.00,,,0.00,meteohub,2013-01-13 06:51:00,
2013-01-12 23:56:00,-10.1,-15.5,30.51,ENE,57,1.0,5.0,76,0.00,,,0.00,meteohub,2013-01-13 06:56:00,